createdAt,value
2018-11-05T00:00:36.691Z,20.17
2018-11-05T00:03:06.653Z,21.27
2018-11-05T00:05:35.732Z,21.87
2018-11-05T00:08:05.005Z,21.40
2018-11-05T00:10:34.910Z,21.90
2018-11-05T00:13:03.898Z,21.63
2018-11-05T00:15:33.067Z,21.47
2018-11-05T00:18:02.017Z,21.70
2018-11-05T00:20:30.975Z,20.43
2018-11-05T00:22:59.858Z,21.00
2018-11-05T00:25:28.828Z,21.63
2018-11-05T00:27:57.819Z,22.20
2018-11-05T00:30:26.758Z,22.67
2018-11-05T00:32:55.767Z,21.37
2018-11-05T00:35:24.612Z,19.57
2018-11-05T00:37:53.489Z,21.03
2018-11-05T00:40:22.890Z,22.33
2018-11-05T00:42:51.986Z,21.67
2018-11-05T00:45:20.975Z,20.23
2018-11-05T00:47:50.837Z,20.27
2018-11-05T00:50:25.444Z,20.33
2018-11-05T00:52:58.407Z,20.60
2018-11-05T00:55:27.457Z,21.93
2018-11-05T00:57:57.032Z,22.90
2018-11-05T01:00:26.126Z,20.37
2018-11-05T01:02:55.132Z,19.97
2018-11-05T01:05:24.195Z,18.53
2018-11-05T01:07:53.285Z,18.10
2018-11-05T01:10:22.188Z,18.97
2018-11-05T01:12:51.795Z,18.87
2018-11-05T01:15:20.874Z,19.73
2018-11-05T01:17:50.334Z,19.27
2018-11-05T01:20:19.821Z,18.00
2018-11-05T01:22:49.606Z,18.90
2018-11-05T01:25:18.607Z,19.67
2018-11-05T01:27:48.296Z,20.57
2018-11-05T01:30:17.391Z,20.63
2018-11-05T01:32:46.410Z,19.90
2018-11-05T01:35:15.426Z,19.03
2018-11-05T01:37:44.371Z,18.80
2018-11-05T01:40:15.280Z,19.30
2018-11-05T01:42:44.731Z,19.27
2018-11-05T01:45:14.608Z,18.67
2018-11-05T01:47:44.172Z,18.60
2018-11-05T01:50:14.960Z,19.10
2018-11-05T01:52:44.345Z,20.30
2018-11-05T01:55:14.012Z,21.27
2018-11-05T01:57:43.307Z,22.27
2018-11-05T02:00:14.869Z,22.57
2018-11-05T02:02:44.920Z,20.57
2018-11-05T02:05:13.879Z,23.10
2018-11-05T02:07:44.356Z,21.43
2018-11-05T02:10:17.560Z,23.27
2018-11-05T02:12:46.861Z,21.67
2018-11-05T02:15:15.962Z,22.80
2018-11-05T02:17:46.004Z,23.77
2018-11-05T02:20:16.016Z,23.77
2018-11-05T02:22:45.006Z,21.80
2018-11-05T02:25:14.475Z,22.77
2018-11-05T02:27:43.778Z,23.43
2018-11-05T02:30:16.943Z,23.00
2018-11-05T02:32:46.315Z,24.97
2018-11-05T02:35:16.112Z,23.87
2018-11-05T02:37:45.743Z,24.13
2018-11-05T02:40:17.924Z,23.73
2018-11-05T02:42:47.390Z,24.20
2018-11-05T02:45:17.441Z,21.57
2018-11-05T02:47:46.404Z,22.70
2018-11-05T02:50:15.839Z,23.00
2018-11-05T02:52:45.752Z,24.40
2018-11-05T02:55:14.696Z,22.23
2018-11-05T02:57:43.687Z,23.73
2018-11-05T03:00:14.584Z,22.53
2018-11-05T03:02:43.627Z,22.90
2018-11-05T03:05:14.771Z,22.30
2018-11-05T03:07:44.378Z,23.53
2018-11-05T03:10:13.728Z,21.70
2018-11-05T03:12:43.403Z,21.83
2018-11-05T03:15:13.821Z,21.10
2018-11-05T03:17:42.839Z,22.10
2018-11-05T03:20:12.915Z,24.33
2018-11-05T03:22:42.261Z,23.50
2018-11-05T03:25:11.452Z,22.27
2018-11-05T03:27:40.893Z,22.37
2018-11-05T03:30:12.974Z,20.97
2018-11-05T03:32:41.966Z,24.03
2018-11-05T03:35:12.054Z,23.73
2018-11-05T03:37:42.049Z,22.93
2018-11-05T03:40:11.913Z,24.63
2018-11-05T03:42:41.582Z,24.47
2018-11-05T03:45:12.253Z,24.13
2018-11-05T03:47:41.538Z,24.80
2018-11-05T03:50:13.752Z,25.20
2018-11-05T03:52:43.541Z,26.00
2018-11-05T03:55:13.104Z,25.93
2018-11-05T03:57:43.175Z,26.90
2018-11-05T04:00:14.732Z,28.43
2018-11-05T04:02:43.930Z,29.03
2018-11-05T04:05:12.999Z,24.20
2018-11-05T04:07:42.084Z,25.73
2018-11-05T04:10:12.380Z,25.73
2018-11-05T04:12:41.453Z,26.17
2018-11-05T04:15:11.799Z,25.90
2018-11-05T04:17:40.853Z,25.17
2018-11-05T04:20:12.134Z,25.17
2018-11-05T04:22:41.589Z,24.10
2018-11-05T04:25:10.687Z,24.00
2018-11-05T04:27:39.841Z,24.93
2018-11-05T04:30:12.550Z,25.10
2018-11-05T04:32:42.107Z,27.37
2018-11-05T04:35:11.569Z,25.87
2018-11-05T04:37:40.507Z,27.53
2018-11-05T04:40:11.558Z,28.73
2018-11-05T04:42:40.789Z,29.77
2018-11-05T04:45:11.388Z,28.13
2018-11-05T04:47:40.402Z,25.57
2018-11-05T04:50:10.499Z,27.83
2018-11-05T04:52:39.997Z,29.03
2018-11-05T04:55:08.968Z,27.23
2018-11-05T04:57:37.971Z,28.30
2018-11-05T05:00:12.156Z,27.27
2018-11-05T05:02:42.018Z,27.83
2018-11-05T05:05:12.318Z,27.90
2018-11-05T05:07:41.332Z,26.07
2018-11-05T05:10:10.645Z,25.70
2018-11-05T05:12:40.667Z,26.70
2018-11-05T05:15:10.245Z,25.80
2018-11-05T05:17:39.659Z,25.27
2018-11-05T05:20:15.044Z,27.17
2018-11-05T05:22:44.374Z,26.53
2018-11-05T05:25:13.766Z,25.63
2018-11-05T05:27:42.647Z,23.83
2018-11-05T05:30:16.909Z,23.97
2018-11-05T05:32:46.934Z,25.07
2018-11-05T05:35:17.307Z,23.60
2018-11-05T05:37:46.369Z,24.67
2018-11-05T05:40:15.358Z,24.47
2018-11-05T05:42:44.532Z,23.40
2018-11-05T05:45:13.704Z,24.03
2018-11-05T05:47:43.360Z,23.60
2018-11-05T05:50:16.573Z,24.30
2018-11-05T05:52:46.857Z,25.50
2018-11-05T05:55:15.983Z,24.87
2018-11-05T05:57:46.054Z,24.10
2018-11-05T06:00:16.257Z,25.10
2018-11-05T06:02:45.245Z,26.07
2018-11-05T06:05:15.018Z,26.93
2018-11-05T06:07:44.445Z,25.03
2018-11-05T06:10:14.485Z,24.87
2018-11-05T06:12:44.114Z,26.03
2018-11-05T06:15:14.367Z,28.40
2018-11-05T06:17:43.461Z,29.63
2018-11-05T06:20:14.907Z,35.17
2018-11-05T06:22:44.852Z,31.60
2018-11-05T06:25:13.790Z,34.23
2018-11-05T06:27:42.998Z,35.03
2018-11-05T06:30:15.958Z,31.90
2018-11-05T06:32:46.023Z,30.83
2018-11-05T06:35:20.708Z,26.27
2018-11-05T06:37:49.744Z,26.80
2018-11-05T06:40:19.945Z,25.53
2018-11-05T06:42:49.238Z,23.93
2018-11-05T06:45:19.597Z,23.57
2018-11-05T06:47:48.948Z,23.53
2018-11-05T06:50:20.122Z,24.43
2018-11-05T06:52:49.373Z,23.53
2018-11-05T06:55:18.291Z,22.80
2018-11-05T06:57:47.349Z,21.70
2018-11-05T07:00:21.210Z,21.73
2018-11-05T07:02:50.193Z,22.67
2018-11-05T07:05:19.206Z,22.83
2018-11-05T07:07:48.219Z,21.93
2018-11-05T07:10:17.750Z,21.13
2018-11-05T07:12:46.728Z,22.60
2018-11-05T07:15:16.776Z,21.90
2018-11-05T07:17:46.750Z,21.23
2018-11-05T07:20:17.280Z,21.03
2018-11-05T07:22:47.350Z,20.63
2018-11-05T07:25:16.507Z,21.03
2018-11-05T07:27:45.519Z,22.77
2018-11-05T07:30:17.785Z,22.90
2018-11-05T07:32:47.457Z,22.57
2018-11-05T07:35:17.893Z,25.37
2018-11-05T07:37:47.120Z,24.17
2018-11-05T07:40:17.218Z,24.30
2018-11-05T07:42:47.427Z,23.63
2018-11-05T07:45:24.123Z,27.27
2018-11-05T07:47:53.280Z,25.67
2018-11-05T07:50:23.114Z,24.67
2018-11-05T07:52:53.865Z,22.50
2018-11-05T07:55:23.088Z,22.97
2018-11-05T07:57:52.803Z,23.33
2018-11-05T08:00:27.455Z,23.00
2018-11-05T08:02:57.870Z,24.57
2018-11-05T08:05:27.206Z,25.60
2018-11-05T08:07:57.613Z,25.00
2018-11-05T08:10:26.802Z,22.80
2018-11-05T08:13:00.453Z,22.30
2018-11-05T08:15:29.791Z,22.20
2018-11-05T08:18:14.360Z,22.17
2018-11-05T08:20:43.465Z,22.83
2018-11-05T08:23:12.574Z,21.23
2018-11-05T08:25:41.705Z,21.50
2018-11-05T08:28:10.911Z,23.10
2018-11-05T08:30:40.069Z,22.27
2018-11-05T08:33:09.123Z,23.90
2018-11-05T08:35:38.272Z,22.33
2018-11-05T08:38:07.440Z,24.10
2018-11-05T08:40:36.457Z,22.97
2018-11-05T08:43:05.756Z,22.60
2018-11-05T08:45:34.651Z,24.40
2018-11-05T08:48:03.645Z,22.63
2018-11-05T08:50:32.736Z,21.77
2018-11-05T08:53:01.881Z,21.43
2018-11-05T08:55:31.012Z,21.40
2018-11-05T08:57:59.981Z,20.07
2018-11-05T09:00:34.383Z,18.60
2018-11-05T09:03:03.363Z,22.10
2018-11-05T09:05:32.321Z,20.87
2018-11-05T09:08:01.390Z,21.60
2018-11-05T09:10:30.662Z,21.03
2018-11-05T09:12:59.553Z,19.67
2018-11-05T09:15:28.598Z,19.40
2018-11-05T09:17:57.562Z,20.83
2018-11-05T09:20:26.505Z,20.60
2018-11-05T09:22:55.588Z,20.40
2018-11-05T09:25:24.599Z,19.33
2018-11-05T09:27:54.897Z,21.00
2018-11-05T09:30:26.673Z,21.13
2018-11-05T09:32:58.012Z,19.77
2018-11-05T09:35:27.231Z,21.57
2018-11-05T09:37:57.986Z,22.60
2018-11-05T09:43:30.117Z,22.10
2018-11-05T09:45:59.212Z,22.50
2018-11-05T09:48:28.226Z,22.63
2018-11-05T09:50:57.209Z,21.27
2018-11-05T09:53:26.195Z,22.60
2018-11-05T09:55:55.875Z,22.23
2018-11-05T09:58:25.152Z,23.30
2018-11-05T10:00:54.372Z,22.10
2018-11-05T10:03:27.001Z,22.47
2018-11-05T10:05:56.090Z,21.50
2018-11-05T10:08:25.003Z,20.80
2018-11-05T10:10:54.081Z,23.07
2018-11-05T10:13:22.950Z,23.37
2018-11-05T10:15:51.846Z,21.80
2018-11-05T10:18:20.839Z,21.50
2018-11-05T10:20:49.738Z,20.77
2018-11-05T10:23:18.619Z,21.20
2018-11-05T10:25:47.454Z,21.07
2018-11-05T10:28:16.461Z,20.53
2018-11-05T10:30:45.359Z,22.00
2018-11-05T10:33:14.302Z,20.73
2018-11-05T10:35:48.412Z,21.67
2018-11-05T10:38:17.348Z,21.57
2018-11-05T10:40:46.203Z,23.13
2018-11-05T10:43:15.126Z,22.57
2018-11-05T10:48:11.958Z,25.30
2018-11-05T10:50:40.951Z,27.03
2018-11-05T10:53:09.890Z,28.77
2018-11-05T10:55:38.784Z,23.53
2018-11-05T10:58:07.718Z,24.20
2018-11-05T11:00:41.962Z,23.57
2018-11-05T11:03:19.025Z,22.17
2018-11-05T11:05:48.106Z,25.33
2018-11-05T11:08:17.095Z,25.00
2018-11-05T11:10:46.015Z,21.17
2018-11-05T11:13:14.917Z,21.43
2018-11-05T11:15:44.131Z,19.63
2018-11-05T11:18:17.315Z,19.37
2018-11-05T11:20:46.645Z,20.20
2018-11-05T11:23:15.757Z,19.23
2018-11-05T11:25:44.664Z,19.13
2018-11-05T11:28:15.421Z,19.33
2018-11-05T11:30:44.599Z,18.83
2018-11-05T11:33:13.619Z,19.67
2018-11-05T11:35:43.413Z,19.00
2018-11-05T11:38:12.483Z,19.87
2018-11-05T11:40:42.200Z,19.33
2018-11-05T11:43:11.635Z,20.03
2018-11-05T11:45:40.517Z,19.90
2018-11-05T11:48:09.401Z,20.03
2018-11-05T11:50:38.302Z,19.40
2018-11-05T11:53:07.259Z,19.63
2018-11-05T11:55:36.109Z,18.83
2018-11-05T11:58:05.256Z,19.17
2018-11-05T12:00:34.181Z,19.10
2018-11-05T12:03:03.063Z,19.53
2018-11-05T12:05:31.966Z,20.07
2018-11-05T12:08:01.534Z,21.50
2018-11-05T12:10:30.618Z,19.77
2018-11-05T12:12:59.720Z,19.83
2018-11-05T12:15:28.586Z,20.17
2018-11-05T12:17:58.127Z,20.63
2018-11-05T12:20:27.023Z,19.07
2018-11-05T12:22:56.033Z,20.57
2018-11-05T12:25:24.903Z,20.60
2018-11-05T12:27:53.792Z,21.73
2018-11-05T12:30:23.821Z,20.30
2018-11-05T12:32:53.763Z,20.30
2018-11-05T12:35:22.710Z,20.77
2018-11-05T12:37:52.688Z,20.13
2018-11-05T12:40:22.481Z,21.47
2018-11-05T12:42:58.022Z,21.63
2018-11-05T12:45:27.060Z,21.63
2018-11-05T12:47:56.228Z,22.67
2018-11-05T12:50:25.469Z,22.97
2018-11-05T12:52:55.454Z,22.37
2018-11-05T12:55:24.513Z,23.10
2018-11-05T12:57:53.828Z,22.40
2018-11-05T13:00:32.463Z,21.70
2018-11-05T13:03:02.048Z,22.50
2018-11-05T13:05:32.139Z,24.27
2018-11-05T13:08:01.404Z,22.70
2018-11-05T13:10:30.632Z,23.93
2018-11-05T13:13:00.233Z,24.10
2018-11-05T13:15:29.566Z,23.67
2018-11-05T13:18:00.146Z,21.70
2018-11-05T13:20:29.845Z,21.97
2018-11-05T13:23:02.057Z,23.20
2018-11-05T13:25:31.835Z,24.60
2018-11-05T13:28:02.564Z,25.77
2018-11-05T13:30:31.780Z,23.27
2018-11-05T13:33:01.347Z,22.83
2018-11-05T13:35:30.510Z,23.50
2018-11-05T13:38:00.043Z,21.30
2018-11-05T13:40:28.499Z,21.80
2018-11-05T13:42:57.694Z,24.17
2018-11-05T13:45:27.846Z,21.33
2018-11-05T13:47:57.913Z,22.70
2018-11-05T13:50:28.754Z,23.10
2018-11-05T13:52:57.755Z,24.17
2018-11-05T13:55:27.139Z,25.73
2018-11-05T13:57:56.130Z,24.27
2018-11-05T14:00:25.412Z,24.80
2018-11-05T14:02:56.082Z,22.83
2018-11-05T14:05:25.888Z,23.27
2018-11-05T14:07:54.809Z,25.10
2018-11-05T14:10:25.125Z,25.37
2018-11-05T14:13:06.812Z,28.13
2018-11-05T14:15:52.952Z,27.40
2018-11-05T14:18:23.287Z,28.80
2018-11-05T14:21:06.284Z,29.33
2018-11-05T14:23:39.865Z,23.40
2018-11-05T14:26:09.317Z,26.00
2018-11-05T14:28:38.944Z,23.10
2018-11-05T14:31:07.863Z,25.83
2018-11-05T14:33:36.820Z,24.30
2018-11-05T14:36:06.035Z,25.03
2018-11-05T14:38:35.362Z,24.17
2018-11-05T14:41:04.232Z,25.27
2018-11-05T14:43:34.242Z,24.20
2018-11-05T14:46:03.580Z,23.90
2018-11-05T14:48:32.608Z,25.63
2018-11-05T14:51:01.833Z,25.80
2018-11-05T14:53:30.812Z,24.93
2018-11-05T14:56:00.664Z,28.43
2018-11-05T14:58:30.350Z,29.40
2018-11-05T15:00:59.491Z,28.80
2018-11-05T15:03:28.657Z,25.70
2018-11-05T15:05:57.983Z,27.43
2018-11-05T15:08:28.565Z,27.70
2018-11-05T15:10:58.266Z,28.23
2018-11-05T15:13:28.694Z,28.53
2018-11-05T15:16:02.062Z,30.40
2018-11-05T15:18:35.408Z,29.93
2018-11-05T15:21:04.601Z,26.47
2018-11-05T15:23:33.508Z,30.00
2018-11-05T15:26:02.679Z,29.83
2018-11-05T15:28:32.207Z,29.43
2018-11-05T15:31:01.191Z,28.77
2018-11-05T15:33:30.714Z,30.17
2018-11-05T15:36:00.070Z,28.07
2018-11-05T15:38:29.159Z,31.47
2018-11-05T15:40:58.363Z,32.33
2018-11-05T15:43:27.511Z,33.07
2018-11-05T15:45:56.991Z,38.80
2018-11-05T15:48:26.306Z,37.37
2018-11-05T15:50:55.666Z,41.83
2018-11-05T15:53:25.434Z,39.90
2018-11-05T15:55:54.268Z,40.57
2018-11-05T15:58:24.211Z,40.70
2018-11-05T16:00:53.607Z,41.07
2018-11-05T16:03:22.958Z,40.00
2018-11-05T16:05:52.359Z,43.83
2018-11-05T16:08:21.646Z,40.93
2018-11-05T16:10:50.769Z,46.27
2018-11-05T16:13:20.901Z,47.70
2018-11-05T16:15:50.238Z,48.50
2018-11-05T16:18:20.353Z,46.17
2018-11-05T16:20:49.646Z,46.53
2018-11-05T16:23:23.957Z,45.87
2018-11-05T16:25:54.899Z,46.30
2018-11-05T16:28:24.109Z,47.00
2018-11-05T16:30:54.843Z,46.00
2018-11-05T16:33:24.426Z,45.53
2018-11-05T16:35:54.141Z,43.67
2018-11-05T16:39:18.373Z,40.03
2018-11-05T16:41:47.961Z,40.07
2018-11-05T16:44:20.303Z,41.30
2018-11-05T17:00:26.724Z,31.73
2018-11-05T17:02:56.064Z,31.20
2018-11-05T17:05:25.163Z,31.10
2018-11-05T17:07:54.422Z,32.30
2018-11-05T17:10:24.945Z,31.27
2018-11-05T17:12:58.676Z,29.57
2018-11-05T17:15:29.451Z,29.43
2018-11-05T17:17:59.750Z,32.07
2018-11-05T17:20:30.220Z,33.10
2018-11-05T17:22:59.717Z,31.50
2018-11-05T17:28:43.983Z,33.57
2018-11-05T17:31:13.473Z,33.87
2018-11-05T17:33:42.673Z,31.93
2018-11-05T17:36:12.126Z,34.30
2018-11-05T17:38:41.568Z,32.70
2018-11-05T17:41:10.948Z,35.63
2018-11-05T17:43:40.355Z,35.93
2018-11-05T17:46:15.369Z,36.13
2018-11-05T17:48:44.520Z,34.50
2018-11-05T17:51:48.333Z,35.80
2018-11-05T17:54:17.947Z,37.23
2018-11-05T17:56:51.427Z,36.97
2018-11-05T17:59:24.610Z,37.30
2018-11-05T18:01:54.895Z,37.73
2018-11-05T18:04:29.960Z,36.43
2018-11-05T18:07:02.859Z,36.50
2018-11-05T18:09:39.197Z,39.47
2018-11-05T18:12:14.354Z,36.53
2018-11-05T18:14:48.759Z,38.17
2018-11-05T18:17:20.566Z,38.70
2018-11-05T18:19:50.367Z,38.93
2018-11-05T18:22:25.579Z,39.13
2018-11-05T18:25:00.705Z,39.63
2018-11-05T18:27:39.978Z,40.27
2018-11-05T18:30:13.656Z,39.17
2018-11-05T18:32:49.294Z,40.60
2018-11-05T18:35:20.453Z,40.23
2018-11-05T18:37:51.902Z,40.87
2018-11-05T18:40:22.565Z,39.73
2018-11-05T18:42:53.127Z,42.27
2018-11-05T18:45:22.670Z,39.07
2018-11-05T18:47:52.371Z,39.43
2018-11-05T18:50:22.131Z,40.30
2018-11-05T18:52:51.356Z,41.40
2018-11-05T18:55:20.773Z,40.33
2018-11-05T18:57:50.396Z,37.30
2018-11-05T19:00:30.037Z,39.33
2018-11-05T19:03:02.055Z,38.83
2018-11-05T19:05:31.411Z,39.70
2018-11-05T19:08:00.685Z,42.53
2018-11-05T19:10:30.278Z,41.17
2018-11-05T19:12:59.586Z,40.67
2018-11-05T19:15:28.685Z,41.60
2018-11-05T19:17:57.794Z,42.30
2018-11-05T19:20:27.908Z,41.70
2018-11-05T19:22:57.120Z,44.13
2018-11-05T19:25:26.573Z,44.57
2018-11-05T19:27:57.878Z,43.83
2018-11-05T19:30:27.894Z,43.03
2018-11-05T19:32:57.400Z,43.53
2018-11-05T19:35:27.024Z,45.37
2018-11-05T19:37:56.678Z,41.97
2018-11-05T19:40:25.630Z,45.90
2018-11-05T19:42:57.139Z,41.03
2018-11-05T19:45:26.702Z,45.30
2018-11-05T19:47:56.001Z,40.43
2018-11-05T19:50:27.370Z,45.43
2018-11-05T19:52:57.509Z,46.60
2018-11-05T19:55:29.049Z,47.70
2018-11-05T19:57:59.032Z,41.77
2018-11-05T20:00:31.293Z,45.30
2018-11-05T20:03:03.199Z,46.47
2018-11-05T20:05:43.873Z,43.77
2018-11-05T20:08:15.837Z,45.43
2018-11-05T20:10:46.200Z,48.07
2018-11-05T20:13:15.754Z,49.33
2018-11-05T20:15:46.719Z,48.80
2018-11-05T20:18:16.515Z,47.53
2018-11-05T20:20:46.698Z,47.97
2018-11-05T20:23:16.768Z,45.37
2018-11-05T20:25:46.058Z,45.93
2018-11-05T20:28:15.973Z,46.73
2018-11-05T20:31:16.349Z,45.37
2018-11-05T20:33:45.642Z,45.53
2018-11-05T20:36:15.028Z,44.03
2018-11-05T20:38:58.938Z,44.50
2018-11-05T20:41:28.929Z,44.73
2018-11-05T20:43:58.500Z,44.13
2018-11-05T20:46:28.904Z,44.13
2018-11-05T20:48:58.276Z,45.13
2018-11-05T20:51:27.680Z,43.37
2018-11-05T20:53:57.291Z,43.03
2018-11-05T20:56:27.670Z,46.70
2018-11-05T20:58:58.212Z,45.43
2018-11-05T21:01:29.583Z,49.40
2018-11-05T21:04:03.558Z,46.47
2018-11-05T21:06:34.914Z,48.23
2018-11-05T21:09:04.489Z,49.17
2018-11-05T21:11:33.986Z,48.80
2018-11-05T21:14:03.583Z,47.67
2018-11-05T21:16:35.079Z,48.50
2018-11-05T21:19:06.037Z,46.17
2018-11-05T21:21:35.480Z,45.40
2018-11-05T21:24:04.883Z,46.00
2018-11-05T21:26:41.065Z,44.70
2018-11-05T21:29:10.503Z,43.17
2018-11-05T21:31:41.656Z,48.07
2018-11-05T21:34:17.963Z,50.20
2018-11-05T21:36:51.439Z,51.33
2018-11-05T21:44:03.472Z,53.37
2018-11-05T21:47:17.391Z,54.73
2018-11-05T21:49:59.935Z,49.43
2018-11-05T21:52:44.136Z,50.67
2018-11-05T21:55:33.729Z,47.53
2018-11-05T21:58:06.913Z,47.03
2018-11-05T22:00:37.302Z,47.93
2018-11-05T22:03:10.754Z,45.20
2018-11-05T22:05:39.964Z,46.03
2018-11-05T22:08:09.142Z,45.73
2018-11-05T22:10:38.574Z,47.03
2018-11-05T22:13:08.371Z,46.33
2018-11-05T22:15:42.798Z,46.17
2018-11-05T22:18:12.201Z,46.60
2018-11-05T22:20:41.497Z,45.93
2018-11-05T22:23:10.671Z,45.77
2018-11-05T22:25:39.809Z,45.33
2018-11-05T22:28:09.436Z,47.93
2018-11-05T22:30:41.061Z,46.90
2018-11-05T22:33:16.419Z,46.23
2018-11-05T22:35:54.087Z,42.60
2018-11-05T22:38:46.052Z,43.87
2018-11-05T22:41:15.327Z,42.67
2018-11-05T22:43:44.736Z,41.17
2018-11-05T22:46:14.018Z,39.83
2018-11-05T22:48:43.420Z,38.90
2018-11-05T22:51:12.789Z,41.90
2018-11-05T22:53:42.280Z,42.27
2018-11-05T22:56:12.635Z,40.20
2018-11-05T22:58:42.517Z,41.63
2018-11-05T23:01:15.792Z,39.77
2018-11-05T23:03:45.574Z,43.10
2018-11-05T23:06:15.124Z,45.53
2018-11-05T23:08:45.596Z,42.17
2018-11-05T23:11:15.302Z,42.53
2018-11-05T23:13:44.888Z,43.87
2018-11-05T23:16:14.251Z,42.43
2018-11-05T23:18:43.683Z,43.30
2018-11-05T23:21:13.045Z,41.20
2018-11-05T23:23:44.059Z,43.73
2018-11-05T23:26:14.413Z,42.93
2018-11-05T23:28:43.664Z,44.80
2018-11-05T23:31:13.616Z,42.63
2018-11-05T23:33:43.287Z,42.87
2018-11-05T23:36:19.743Z,41.63
2018-11-05T23:38:49.315Z,41.53
2018-11-05T23:41:18.841Z,40.17
2018-11-05T23:43:48.258Z,41.03
2018-11-05T23:46:17.542Z,40.37
2018-11-05T23:51:28.118Z,40.40
2018-11-05T23:54:02.037Z,40.53
2018-11-05T23:56:49.634Z,38.43
2018-11-05T23:59:27.644Z,39.20
